Terminal Aerodrome Forecast
Issued by NWS

Home | Current Version | Previous Version | Text Only | Print | Product List | Glossary Off
Versions: 1 2 3 4 5 6 7 8 9 10 11 12 13 14 15 16 17 18 19 20 21 22 23 24 25 26 27 28 29 30 31 32 33

971
FTUS43 KLOT 212103 AAB
TAFMDW
TAF AMD
KMDW 212103Z 2121/2224 10004KT 2SM -DZ BR OVC004
     FM220100 11004KT 1SM -SHRA BR OVC003
      TEMPO 2201/2205 3/4SM -SHRA BR
     FM221000 12007KT 1SM SHRA BR OVC004 PROB30 2210/2216 -TSRA BR
      OVC003CB
     FM221900 17012G18KT 2SM -SHRA BR OVC006=

USA.gov is the U.S. government's official web portal to all federal, state and local government web resources and services.